Time;durP1;ratioP1;P1;durP2;ratioP2;P2;SDS_P1;SDS_P2;PMS_P1;PMS_P2;Temp;Humidity;BMP_temperature;BMP_pressure;BME280_temperature;BME280_humidity;BME280_pressure;Samples;Min_cycle;Max_cycle;Signal;HPM_P1;HPM_P2
2022/03/09 00:01:59;;;;;;;9.57;4.10;;;2.80;80.40;;;;;;5026845;28;20108;-57
2022/03/09 00:04:25;;;;;;;6.95;3.75;;;2.80;80.10;;;;;;5026058;28;20169;-59
2022/03/09 00:06:50;;;;;;;7.90;4.25;;;2.80;80.60;;;;;;4996953;28;20490;-58
2022/03/09 00:09:16;;;;;;;9.25;3.45;;;2.90;79.50;;;;;;5006788;28;20437;-59
2022/03/09 00:11:42;;;;;;;6.53;3.75;;;2.90;79.70;;;;;;5012509;28;20025;-56
2022/03/09 00:14:08;;;;;;;8.50;3.92;;;2.90;79.90;;;;;;5005528;28;20030;-59
2022/03/09 00:16:34;;;;;;;10.60;4.25;;;3.00;79.20;;;;;;5007506;28;20550;-58
2022/03/09 00:19:00;;;;;;;7.25;4.15;;;2.90;79.10;;;;;;5010458;28;20033;-60
2022/03/09 00:21:25;;;;;;;11.80;4.30;;;2.90;78.60;;;;;;5000604;28;20093;-60
2022/03/09 00:23:51;;;;;;;9.02;3.92;;;3.00;78.80;;;;;;5008919;28;20057;-60
2022/03/09 00:26:16;;;;;;;8.85;4.07;;;2.90;79.00;;;;;;5009999;28;20038;-59
2022/03/09 00:28:45;;;;;;;9.25;3.50;;;3.00;78.90;;;;;;5008511;28;20108;-60
2022/03/09 00:31:10;;;;;;;8.57;3.88;;;3.00;78.80;;;;;;4991610;28;20038;-59
2022/03/09 00:33:38;;;;;;;8.52;4.18;;;2.90;78.70;;;;;;5009140;28;20102;-60
2022/03/09 00:36:04;;;;;;;8.20;3.90;;;2.90;78.90;;;;;;5011597;28;20570;-59
2022/03/09 00:38:30;;;;;;;10.00;3.75;;;2.90;78.60;;;;;;5008271;28;20041;-59
2022/03/09 00:40:56;;;;;;;6.05;3.22;;;2.90;78.70;;;;;;5005470;28;20074;-60
2022/03/09 00:43:22;;;;;;;6.30;3.30;;;2.90;78.70;;;;;;5005429;28;20034;-59
2022/03/09 00:45:48;;;;;;;12.90;3.80;;;3.00;78.70;;;;;;5009455;28;20042;-60
2022/03/09 00:48:14;;;;;;;8.00;4.00;;;2.90;78.90;;;;;;5004286;28;20507;-61
2022/03/09 00:50:39;;;;;;;7.93;3.58;;;2.80;78.70;;;;;;5044286;23;20054;-59
2022/03/09 00:53:05;;;;;;;8.32;3.63;;;2.90;78.50;;;;;;5042063;28;20111;-58
2022/03/09 00:55:30;;;;;;;7.57;4.03;;;2.70;78.90;;;;;;5031265;28;20085;-57
2022/03/09 00:57:56;;;;;;;9.23;4.15;;;2.70;79.20;;;;;;5027855;28;20827;-59
2022/03/09 01:00:21;;;;;;;11.75;4.38;;;2.60;79.50;;;;;;5034075;28;20033;-50
2022/03/09 01:02:47;;;;;;;12.55;4.05;;;2.50;79.60;;;;;;5025903;28;20053;-55
2022/03/09 01:05:14;;;;;;;8.32;4.32;;;2.50;79.50;;;;;;5016249;28;20536;-55
2022/03/09 01:07:40;;;;;;;9.65;4.32;;;2.50;79.80;;;;;;5048496;28;20021;-54
2022/03/09 01:10:06;;;;;;;11.43;4.28;;;2.60;79.50;;;;;;5038321;28;20032;-55
2022/03/09 01:12:32;;;;;;;11.00;4.20;;;2.60;79.60;;;;;;5048285;28;20039;-58
2022/03/09 01:14:58;;;;;;;7.05;3.60;;;2.60;79.40;;;;;;5048690;28;20029;-57
2022/03/09 01:17:24;;;;;;;11.90;4.03;;;2.60;79.40;;;;;;5048937;28;20027;-56
2022/03/09 01:19:49;;;;;;;6.50;3.78;;;2.70;79.30;;;;;;5046816;28;20025;-55
2022/03/09 01:22:15;;;;;;;8.00;4.32;;;2.60;79.40;;;;;;5041981;28;20036;-60
2022/03/09 01:24:41;;;;;;;7.25;3.80;;;2.70;79.10;;;;;;5043640;28;20779;-58
2022/03/09 01:27:06;;;;;;;7.28;3.60;;;2.70;79.00;;;;;;5046105;28;20053;-56
2022/03/09 01:29:32;;;;;;;13.05;3.63;;;2.70;79.10;;;;;;5040929;28;20034;-57
2022/03/09 01:31:57;;;;;;;13.68;4.60;;;2.50;79.80;;;;;;5046412;28;20024;-59
2022/03/09 01:34:23;;;;;;;16.27;4.30;;;2.50;80.00;;;;;;5048465;28;20791;-57
2022/03/09 01:36:48;;;;;;;7.53;3.72;;;2.30;80.60;;;;;;5046989;28;20017;-57
2022/03/09 01:39:14;;;;;;;7.88;4.60;;;2.20;80.80;;;;;;5046746;28;20025;-59
2022/03/09 01:41:40;;;;;;;8.85;4.03;;;2.20;80.90;;;;;;5048648;28;20112;-57
2022/03/09 01:44:09;;;;;;;8.32;4.30;;;2.30;81.00;;;;;;5044517;28;20159;-59
2022/03/09 01:46:35;;;;;;;11.75;3.80;;;2.40;80.40;;;;;;5048850;28;20033;-58
2022/03/09 01:49:00;;;;;;;7.68;4.13;;;2.30;80.50;;;;;;5045684;28;20053;-59
2022/03/09 01:51:26;;;;;;;10.77;4.00;;;2.30;80.70;;;;;;5039619;28;20741;-59
2022/03/09 01:53:52;;;;;;;7.65;4.20;;;2.30;81.20;;;;;;5045434;28;20480;-58
2022/03/09 01:56:18;;;;;;;7.43;3.70;;;2.20;81.80;;;;;;5036318;28;20024;-58
2022/03/09 01:58:44;;;;;;;8.38;4.18;;;2.10;82.40;;;;;;5042532;28;20033;-56
2022/03/09 02:01:09;;;;;;;9.70;4.07;;;2.00;81.90;;;;;;5046572;28;20075;-60
2022/03/09 02:03:35;;;;;;;8.65;5.15;;;1.90;82.20;;;;;;5038380;28;20036;-58
2022/03/09 02:06:01;;;;;;;8.65;4.15;;;1.90;81.90;;;;;;5021709;28;20049;-58
2022/03/09 02:11:11;;;;;;;11.43;4.95;;;1.70;83.30;;;;;;5044005;28;20040;-57
2022/03/09 02:13:37;;;;;;;8.50;4.22;;;1.80;83.60;;;;;;5054336;28;20036;-57
2022/03/09 02:16:04;;;;;;;15.68;4.63;;;1.70;83.60;;;;;;5054302;28;20117;-59
2022/03/09 02:18:29;;;;;;;15.55;4.40;;;1.60;84.40;;;;;;5053551;28;20016;-56
2022/03/09 02:20:59;;;;;;;9.18;5.30;;;1.60;85.30;;;;;;5052506;28;20028;-58
2022/03/09 02:23:25;;;;;;;10.88;4.80;;;1.70;83.50;;;;;;5051777;28;20033;-59
2022/03/09 02:25:50;;;;;;;10.52;4.38;;;1.80;83.20;;;;;;5041655;28;20035;-60
2022/03/09 02:28:16;;;;;;;9.63;4.13;;;1.80;82.80;;;;;;5047599;28;20065;-60
2022/03/09 02:30:41;;;;;;;11.50;4.28;;;1.80;82.70;;;;;;5044849;28;20047;-60
2022/03/09 02:33:07;;;;;;;7.95;3.70;;;2.00;81.70;;;;;;5051254;28;20051;-61
2022/03/09 02:35:32;;;;;;;7.30;4.07;;;2.00;81.70;;;;;;5052162;28;20055;-56
2022/03/09 02:37:58;;;;;;;10.68;4.00;;;2.10;81.10;;;;;;5052000;28;20029;-57
2022/03/09 02:40:23;;;;;;;7.93;3.60;;;2.20;80.80;;;;;;5049466;28;20490;-59
2022/03/09 02:42:49;;;;;;;12.25;3.88;;;2.20;81.30;;;;;;5051393;28;20051;-59
2022/03/09 02:45:15;;;;;;;7.25;4.05;;;2.10;81.60;;;;;;5051741;28;20029;-59
2022/03/09 02:47:45;;;;;;;9.10;4.47;;;2.10;82.00;;;;;;5052445;28;20094;-58
2022/03/09 02:50:12;;;;;;;6.97;3.50;;;2.00;81.50;;;;;;5052317;28;20116;-59
2022/03/09 02:52:39;;;;;;;7.15;3.60;;;2.00;82.00;;;;;;5050088;28;20079;-55
2022/03/09 02:55:06;;;;;;;7.43;3.75;;;1.90;82.50;;;;;;5051092;28;20029;-60
2022/03/09 02:57:31;;;;;;;8.95;3.65;;;1.80;82.80;;;;;;5051912;28;20494;-57
2022/03/09 02:59:57;;;;;;;8.85;4.13;;;1.70;83.70;;;;;;5046662;28;20028;-57
2022/03/09 03:02:22;;;;;;;12.77;4.20;;;1.60;84.20;;;;;;5052177;28;20472;-60
2022/03/09 03:04:48;;;;;;;10.00;4.50;;;1.60;84.00;;;;;;5051508;28;20029;-59
2022/03/09 03:07:13;;;;;;;8.25;4.38;;;1.60;83.10;;;;;;5051138;28;20032;-59
2022/03/09 03:09:39;;;;;;;10.80;3.63;;;1.60;83.70;;;;;;5031796;28;20045;-59
2022/03/09 03:12:05;;;;;;;10.88;4.20;;;1.60;84.20;;;;;;5049740;28;20217;-58
2022/03/09 03:14:30;;;;;;;8.85;4.10;;;1.60;83.50;;;;;;5043206;28;20526;-56
2022/03/09 03:16:56;;;;;;;8.68;4.60;;;1.60;83.20;;;;;;5049911;28;20029;-58
2022/03/09 03:19:21;;;;;;;7.97;4.55;;;1.70;82.80;;;;;;5045788;28;20025;-58
2022/03/09 03:21:47;;;;;;;10.32;4.82;;;1.80;82.40;;;;;;5045993;28;20079;-58
2022/03/09 03:24:12;;;;;;;9.20;3.83;;;1.80;82.60;;;;;;5045168;28;20044;-59
2022/03/09 03:26:38;;;;;;;8.30;4.35;;;1.80;82.50;;;;;;5047639;28;20033;-55
2022/03/09 03:29:03;;;;;;;9.13;4.50;;;1.80;82.40;;;;;;5051037;28;20064;-58
2022/03/09 03:31:29;;;;;;;8.07;4.68;;;1.70;82.70;;;;;;5050802;28;20033;-56
2022/03/09 03:33:56;;;;;;;8.85;4.05;;;1.70;82.70;;;;;;5050012;28;20128;-59
2022/03/09 03:36:22;;;;;;;10.80;4.75;;;1.70;83.00;;;;;;5050640;28;20494;-59
2022/03/09 03:38:47;;;;;;;8.07;4.10;;;1.60;83.20;;;;;;5047721;28;20047;-56
2022/03/09 03:41:13;;;;;;;8.32;4.65;;;1.60;83.10;;;;;;5050532;28;20032;-60
2022/03/09 03:43:38;;;;;;;12.68;5.00;;;1.60;83.80;;;;;;5049371;28;20068;-56
2022/03/09 03:46:04;;;;;;;9.75;4.85;;;1.50;83.70;;;;;;5050515;28;20039;-60
2022/03/09 03:48:29;;;;;;;11.88;4.05;;;1.40;83.90;;;;;;5050756;28;20100;-59
2022/03/09 03:50:55;;;;;;;8.88;5.32;;;1.30;84.20;;;;;;5047231;28;20090;-59
2022/03/09 03:53:20;;;;;;;9.57;4.45;;;1.30;84.90;;;;;;5049386;28;20025;-58
2022/03/09 03:55:46;;;;;;;10.07;4.55;;;1.20;84.90;;;;;;5049873;28;20017;-59
2022/03/09 03:58:12;;;;;;;12.95;6.10;;;1.30;84.80;;;;;;5050177;28;20028;-58
2022/03/09 04:00:38;;;;;;;9.75;3.83;;;1.20;85.40;;;;;;5049819;28;20029;-58
2022/03/09 04:03:03;;;;;;;11.75;4.32;;;1.20;84.70;;;;;;5050025;28;20032;-59
2022/03/09 04:05:29;;;;;;;13.30;3.92;;;1.30;84.60;;;;;;5045884;28;20468;-58
2022/03/09 04:07:55;;;;;;;7.97;4.23;;;1.30;84.40;;;;;;5048686;28;20082;-58
2022/03/09 04:10:21;;;;;;;9.00;3.70;;;1.40;84.20;;;;;;5033229;28;20398;-54
2022/03/09 04:12:46;;;;;;;9.98;4.60;;;1.40;84.20;;;;;;5049111;28;20041;-59
2022/03/09 04:15:12;;;;;;;7.97;4.10;;;1.40;83.90;;;;;;5046789;28;20061;-58
2022/03/09 04:17:45;;;;;;;9.27;4.00;;;1.30;84.20;;;;;;5050316;28;20033;-59
2022/03/09 04:20:12;;;;;;;7.43;4.03;;;1.30;84.40;;;;;;5037161;28;20137;-59
2022/03/09 04:22:39;;;;;;;9.98;4.00;;;1.30;84.40;;;;;;5048090;28;20065;-55
2022/03/09 04:25:05;;;;;;;13.00;4.35;;;1.10;84.60;;;;;;5044432;28;20025;-59
2022/03/09 04:27:30;;;;;;;7.80;4.25;;;1.10;85.30;;;;;;5046103;28;20082;-58
2022/03/09 04:29:56;;;;;;;7.78;4.20;;;1.00;85.60;;;;;;5042691;28;20033;-53
2022/03/09 04:32:22;;;;;;;8.75;4.60;;;1.00;86.00;;;;;;5050257;28;20308;-61
2022/03/09 04:34:48;;;;;;;11.33;5.73;;;0.90;86.40;;;;;;5044492;28;20044;-55
2022/03/09 04:37:13;;;;;;;9.15;4.50;;;0.80;86.30;;;;;;5048814;28;20029;-59
2022/03/09 04:39:39;;;;;;;12.97;5.47;;;0.80;86.70;;;;;;5043722;28;20036;-59
2022/03/09 04:42:04;;;;;;;8.70;4.77;;;0.80;87.40;;;;;;5047465;28;20021;-58
2022/03/09 04:44:30;;;;;;;7.60;3.97;;;0.70;87.50;;;;;;5037409;28;20037;-58
2022/03/09 04:46:56;;;;;;;13.33;5.10;;;0.70;87.20;;;;;;5034882;28;20065;-57
2022/03/09 04:49:21;;;;;;;10.87;4.50;;;0.70;87.10;;;;;;5048576;28;20028;-54
2022/03/09 04:51:47;;;;;;;11.37;5.07;;;0.90;86.30;;;;;;5048697;28;20102;-56
2022/03/09 04:54:12;;;;;;;8.73;4.97;;;0.90;86.10;;;;;;5048768;28;20041;-57
2022/03/09 04:56:38;;;;;;;8.95;4.80;;;1.00;85.90;;;;;;5049536;28;20025;-55
2022/03/09 04:59:03;;;;;;;7.85;3.95;;;1.10;85.50;;;;;;5045723;28;20553;-58
2022/03/09 05:01:29;;;;;;;12.18;4.68;;;1.10;85.30;;;;;;5047256;28;20064;-60
2022/03/09 05:03:54;;;;;;;8.45;4.43;;;1.10;85.40;;;;;;5032999;28;20610;-59
2022/03/09 05:06:20;;;;;;;10.27;5.03;;;1.10;85.40;;;;;;5046973;28;20028;-59
2022/03/09 05:08:46;;;;;;;8.23;3.93;;;1.00;85.80;;;;;;5048135;28;20041;-58
2022/03/09 05:11:11;;;;;;;9.80;4.03;;;1.00;85.70;;;;;;5031987;28;20041;-59
2022/03/09 05:13:37;;;;;;;14.70;4.50;;;1.00;85.30;;;;;;5047637;28;20051;-55
2022/03/09 05:16:05;;;;;;;14.88;4.22;;;1.10;85.40;;;;;;5040431;28;20435;-58
2022/03/09 05:18:31;;;;;;;11.50;4.50;;;1.10;85.30;;;;;;5041352;28;20026;-59
2022/03/09 05:20:57;;;;;;;7.03;3.72;;;1.10;85.40;;;;;;5031564;28;20021;-56
2022/03/09 05:23:22;;;;;;;6.32;3.83;;;1.10;85.20;;;;;;5048355;28;20036;-54
2022/03/09 05:25:48;;;;;;;6.88;4.45;;;1.10;85.50;;;;;;5042077;28;20115;-56
2022/03/09 05:28:13;;;;;;;8.52;4.22;;;1.00;85.50;;;;;;5048773;28;20025;-53
2022/03/09 05:30:39;;;;;;;9.98;4.85;;;1.10;85.30;;;;;;5048452;28;20524;-56
2022/03/09 05:33:04;;;;;;;9.17;4.37;;;1.00;85.30;;;;;;5048114;28;20031;-58
2022/03/09 05:35:30;;;;;;;11.52;3.85;;;1.10;85.40;;;;;;5047782;28;20051;-56
2022/03/09 05:37:55;;;;;;;11.93;4.55;;;1.10;85.10;;;;;;5049095;28;20032;-60
2022/03/09 05:40:21;;;;;;;9.43;4.07;;;1.20;85.00;;;;;;5036969;28;20060;-59
2022/03/09 05:42:47;;;;;;;22.60;6.60;;;1.20;84.90;;;;;;5046955;28;20438;-57
2022/03/09 05:45:12;;;;;;;9.90;4.88;;;1.20;84.90;;;;;;5047864;28;20033;-58
2022/03/09 05:47:38;;;;;;;11.68;4.13;;;1.10;85.10;;;;;;5046605;28;20037;-59
2022/03/09 05:50:04;;;;;;;10.82;4.38;;;1.10;85.20;;;;;;5048140;28;20036;-58
2022/03/09 05:52:30;;;;;;;9.97;4.43;;;1.00;85.70;;;;;;5048477;28;20072;-59
2022/03/09 05:54:55;;;;;;;7.10;4.50;;;1.00;85.70;;;;;;5046907;28;20103;-58
2022/03/09 05:57:22;;;;;;;11.77;5.13;;;1.00;85.60;;;;;;5043636;28;20021;-60
2022/03/09 05:59:48;;;;;;;11.27;5.72;;;1.00;85.50;;;;;;5039331;28;20487;-58
2022/03/09 06:02:14;;;;;;;7.63;3.85;;;1.10;85.60;;;;;;5034380;28;20055;-59
2022/03/09 06:04:39;;;;;;;10.30;4.17;;;1.20;85.30;;;;;;5047089;28;20422;-60
2022/03/09 06:07:05;;;;;;;13.52;5.00;;;1.20;85.10;;;;;;5041655;28;20553;-59
2022/03/09 06:09:31;;;;;;;9.00;4.40;;;1.10;85.40;;;;;;5042795;28;20025;-59
2022/03/09 06:11:56;;;;;;;9.15;4.45;;;1.10;85.30;;;;;;5022445;28;20117;-59
2022/03/09 06:14:22;;;;;;;9.60;4.13;;;1.20;85.00;;;;;;5043046;28;20061;-60
2022/03/09 06:16:48;;;;;;;9.23;4.15;;;1.20;85.30;;;;;;5035647;28;20498;-58
2022/03/09 06:19:17;;;;;;;9.38;4.32;;;1.20;85.10;;;;;;5036139;28;20541;-61
2022/03/09 06:21:43;;;;;;;10.10;4.18;;;1.20;85.30;;;;;;5048955;28;20746;-58
2022/03/09 06:24:09;;;;;;;8.10;4.13;;;1.30;85.10;;;;;;5047420;28;20029;-59
2022/03/09 06:26:36;;;;;;;9.00;4.65;;;1.40;85.10;;;;;;5047956;28;20040;-57
2022/03/09 06:29:03;;;;;;;9.60;4.25;;;1.40;84.60;;;;;;5047630;28;20041;-58
2022/03/09 06:31:28;;;;;;;8.65;5.03;;;1.50;84.10;;;;;;5046225;28;20570;-60
2022/03/09 06:33:54;;;;;;;7.88;4.35;;;1.50;84.40;;;;;;5038431;28;20116;-60
2022/03/09 06:36:20;;;;;;;6.75;4.13;;;1.50;84.50;;;;;;5046551;28;20716;-58
2022/03/09 06:38:45;;;;;;;9.90;4.78;;;1.60;84.10;;;;;;5047279;28;20506;-59
2022/03/09 06:41:11;;;;;;;10.77;4.43;;;1.60;84.30;;;;;;5047964;28;20491;-57
2022/03/09 06:43:37;;;;;;;9.27;4.32;;;1.60;84.70;;;;;;5047441;28;20028;-57
2022/03/09 06:46:03;;;;;;;11.57;4.57;;;1.60;84.60;;;;;;5049129;28;20064;-60
2022/03/09 06:48:29;;;;;;;9.43;4.50;;;1.70;84.80;;;;;;5048652;28;20383;-59
2022/03/09 06:53:20;;;;;;;9.43;4.15;;;1.80;83.90;;;;;;5040143;23;20080;-58
2022/03/09 06:55:46;;;;;;;7.32;4.43;;;2.00;84.10;;;;;;5027975;28;20037;-58
2022/03/09 06:58:11;;;;;;;8.98;4.78;;;2.10;83.50;;;;;;5031401;28;20564;-60
2022/03/09 07:00:37;;;;;;;9.77;4.03;;;2.20;83.30;;;;;;5031285;28;20091;-59
2022/03/09 07:03:05;;;;;;;9.23;4.80;;;2.40;82.70;;;;;;5049126;28;20025;-59
2022/03/09 07:05:31;;;;;;;8.50;4.25;;;2.60;82.40;;;;;;5049219;28;20124;-57
2022/03/09 07:07:57;;;;;;;10.95;4.45;;;2.90;82.10;;;;;;5050410;28;20056;-59
2022/03/09 07:10:22;;;;;;;8.95;5.07;;;3.50;81.10;;;;;;5041107;28;20470;-60
2022/03/09 07:12:48;;;;;;;13.27;4.60;;;4.50;79.60;;;;;;5023562;28;20383;-59
2022/03/09 07:15:15;;;;;;;10.20;5.43;;;5.80;76.10;;;;;;5011989;28;20033;-59
2022/03/09 07:17:42;;;;;;;12.82;5.20;;;7.00;72.00;;;;;;5019251;28;20041;-59
2022/03/09 07:20:09;;;;;;;8.70;4.75;;;7.20;69.90;;;;;;5026254;28;20552;-60
2022/03/09 07:22:34;;;;;;;9.70;5.38;;;6.60;70.50;;;;;;5022120;28;20030;-58
2022/03/09 07:25:00;;;;;;;7.47;4.50;;;6.00;71.30;;;;;;5011194;28;20041;-58
2022/03/09 07:27:26;;;;;;;9.52;4.65;;;5.50;73.10;;;;;;5019007;28;20485;-57
2022/03/09 07:29:51;;;;;;;8.43;4.75;;;5.20;74.50;;;;;;5023427;28;20450;-60
2022/03/09 07:32:17;;;;;;;6.85;4.22;;;4.90;74.90;;;;;;5029805;28;20026;-60
2022/03/09 07:34:42;;;;;;;13.32;4.90;;;4.70;76.50;;;;;;5017969;28;20682;-59
2022/03/09 07:37:08;;;;;;;11.07;4.95;;;4.40;77.50;;;;;;5015865;28;20029;-60
2022/03/09 07:39:35;;;;;;;10.55;5.03;;;4.20;77.20;;;;;;5024744;28;20510;-59
2022/03/09 07:42:01;;;;;;;8.27;4.40;;;4.20;77.30;;;;;;5015152;28;20064;-60
2022/03/09 07:44:27;;;;;;;15.20;4.80;;;4.20;78.10;;;;;;5019890;28;20034;-60
2022/03/09 07:46:53;;;;;;;18.35;5.07;;;4.10;79.20;;;;;;5025764;28;20026;-56
2022/03/09 07:49:19;;;;;;;10.45;4.80;;;4.10;77.30;;;;;;5028073;28;20091;-59
2022/03/09 07:51:45;;;;;;;10.85;4.97;;;4.10;78.80;;;;;;5029364;28;20096;-60
2022/03/09 07:54:12;;;;;;;10.95;5.10;;;4.20;78.20;;;;;;5024402;28;20029;-59
2022/03/09 07:56:38;;;;;;;7.82;4.28;;;4.20;79.00;;;;;;5027193;28;20033;-60
2022/03/09 07:59:05;;;;;;;11.05;5.18;;;4.30;77.70;;;;;;5025577;28;20026;-59
2022/03/09 08:01:30;;;;;;;10.70;5.75;;;4.20;78.70;;;;;;5015186;28;20021;-60
2022/03/09 08:03:56;;;;;;;11.05;5.28;;;4.30;78.80;;;;;;5024493;28;20041;-60
2022/03/09 08:06:22;;;;;;;9.57;4.65;;;4.30;78.60;;;;;;5022686;28;20037;-59
2022/03/09 08:08:47;;;;;;;7.72;4.72;;;4.40;78.90;;;;;;5028662;28;20029;-60
2022/03/09 08:11:13;;;;;;;8.43;5.28;;;4.40;79.50;;;;;;5029558;28;20079;-60
2022/03/09 08:13:39;;;;;;;12.50;5.18;;;4.40;77.80;;;;;;5009318;28;20061;-59
2022/03/09 08:16:05;;;;;;;11.35;5.13;;;4.50;77.80;;;;;;5016372;28;20026;-60
2022/03/09 08:18:30;;;;;;;13.68;4.93;;;4.60;78.40;;;;;;5013779;28;20076;-59
2022/03/09 08:20:56;;;;;;;10.90;4.70;;;4.70;78.20;;;;;;5016113;28;20510;-59
2022/03/09 08:23:23;;;;;;;9.07;5.20;;;4.70;78.90;;;;;;5015168;28;20081;-60
2022/03/09 08:25:49;;;;;;;9.63;4.88;;;4.80;77.80;;;;;;5038140;28;20045;-59
2022/03/09 08:28:14;;;;;;;14.43;5.07;;;4.90;77.70;;;;;;5022425;28;20018;-60
2022/03/09 08:30:40;;;;;;;6.97;4.10;;;4.90;78.10;;;;;;5010924;28;20047;-58
2022/03/09 08:33:06;;;;;;;10.30;5.40;;;5.00;77.60;;;;;;5014967;28;20021;-58
2022/03/09 08:35:32;;;;;;;11.98;5.55;;;5.10;78.70;;;;;;5021577;28;20030;-58
2022/03/09 08:37:58;;;;;;;9.95;5.10;;;5.10;76.50;;;;;;5028326;28;20166;-59
2022/03/09 08:40:23;;;;;;;10.93;5.40;;;5.30;77.70;;;;;;5012776;28;20033;-60
2022/03/09 08:42:49;;;;;;;8.85;5.57;;;5.30;77.50;;;;;;5020755;28;20030;-59
2022/03/09 08:45:15;;;;;;;7.53;4.55;;;5.40;78.50;;;;;;5018642;28;20029;-60
2022/03/09 08:47:40;;;;;;;8.52;5.22;;;5.50;77.60;;;;;;5018736;28;20104;-59
2022/03/09 08:50:07;;;;;;;7.65;4.45;;;5.60;77.30;;;;;;5016902;28;20484;-60
2022/03/09 08:52:33;;;;;;;11.70;5.15;;;5.70;76.70;;;;;;5014051;28;20503;-60
2022/03/09 08:54:58;;;;;;;10.23;4.60;;;5.80;77.20;;;;;;5028799;28;20034;-59
2022/03/09 08:57:24;;;;;;;9.73;5.00;;;6.00;78.60;;;;;;5027605;28;20079;-59
2022/03/09 08:59:50;;;;;;;8.35;5.13;;;6.10;77.30;;;;;;5020477;28;20051;-60
2022/03/09 09:02:15;;;;;;;10.77;5.30;;;6.20;74.80;;;;;;5024139;28;20041;-58
2022/03/09 09:04:41;;;;;;;11.73;4.97;;;6.40;75.30;;;;;;5014900;28;20033;-59
2022/03/09 09:07:07;;;;;;;8.55;5.05;;;6.50;74.80;;;;;;5028892;28;20033;-59
2022/03/09 09:09:33;;;;;;;8.88;4.55;;;6.60;74.40;;;;;;5024805;28;20104;-58
2022/03/09 09:11:59;;;;;;;6.88;4.38;;;6.60;74.50;;;;;;5012733;28;20472;-59
2022/03/09 09:14:25;;;;;;;8.43;5.15;;;6.70;74.60;;;;;;5017448;28;20518;-60
2022/03/09 09:16:51;;;;;;;12.30;5.38;;;6.80;74.20;;;;;;5018981;28;20103;-60
2022/03/09 09:19:17;;;;;;;11.23;5.35;;;7.10;73.00;;;;;;5027157;28;20503;-60
2022/03/09 09:21:43;;;;;;;11.73;4.85;;;7.90;73.60;;;;;;5026535;28;20037;-60
2022/03/09 09:24:09;;;;;;;8.90;5.07;;;8.70;72.50;;;;;;5018552;28;20032;-61
2022/03/09 09:26:35;;;;;;;7.95;4.60;;;9.60;70.30;;;;;;5022708;28;20665;-61
2022/03/09 09:29:00;;;;;;;12.82;5.28;;;10.10;69.90;;;;;;5021186;28;20037;-61
2022/03/09 09:31:26;;;;;;;9.15;5.68;;;11.00;66.90;;;;;;5028884;28;20171;-61
2022/03/09 09:33:51;;;;;;;19.95;7.15;;;11.50;65.50;;;;;;5019202;28;20068;-61
2022/03/09 09:36:17;;;;;;;10.90;5.65;;;11.80;64.70;;;;;;5029669;28;20030;-59
2022/03/09 09:38:42;;;;;;;10.85;5.93;;;12.20;62.60;;;;;;5012847;28;20164;-61
2022/03/09 09:41:13;;;;;;;9.75;5.97;;;12.40;62.60;;;;;;5028446;28;20033;-61
2022/03/09 09:43:40;;;;;;;9.25;6.40;;;12.50;63.00;;;;;;5024607;28;20032;-61
2022/03/09 09:46:07;;;;;;;10.45;6.55;;;12.50;62.50;;;;;;5028649;28;20035;-61
2022/03/09 09:48:33;;;;;;;8.45;5.97;;;12.40;61.90;;;;;;5029293;28;20033;-61
2022/03/09 09:50:59;;;;;;;9.60;6.28;;;12.90;62.00;;;;;;5010337;28;20084;-61
2022/03/09 09:53:27;;;;;;;9.10;6.88;;;12.80;62.20;;;;;;5010129;28;20119;-61
2022/03/09 09:55:53;;;;;;;8.60;5.63;;;12.80;61.10;;;;;;5026878;28;20023;-59
2022/03/09 09:58:20;;;;;;;9.80;6.22;;;12.80;61.40;;;;;;5024078;28;20465;-61
2022/03/09 10:00:45;;;;;;;9.65;6.35;;;13.00;60.90;;;;;;5020885;28;20048;-60
2022/03/09 10:03:11;;;;;;;8.40;6.05;;;13.00;59.90;;;;;;5025179;28;20391;-61
2022/03/09 10:05:37;;;;;;;9.82;6.07;;;13.10;60.70;;;;;;5025257;28;20041;-60
2022/03/09 10:08:03;;;;;;;9.15;6.60;;;13.30;60.90;;;;;;5025260;28;20380;-61
2022/03/09 10:10:33;;;;;;;10.38;6.53;;;13.50;60.10;;;;;;5028138;28;20029;-61
2022/03/09 10:13:15;;;;;;;16.42;7.60;;;13.50;57.80;;;;;;5022538;28;20310;-59
2022/03/09 10:15:42;;;;;;;11.70;6.57;;;13.50;57.60;;;;;;5003993;28;20591;-61
2022/03/09 10:18:13;;;;;;;12.60;6.63;;;13.50;57.50;;;;;;5027194;28;20480;-61
2022/03/09 10:20:39;;;;;;;12.93;6.50;;;13.60;59.20;;;;;;5012687;28;20033;-60
2022/03/09 10:23:04;;;;;;;11.45;6.43;;;13.30;58.20;;;;;;5025242;28;20037;-61
2022/03/09 10:25:30;;;;;;;10.43;6.32;;;13.30;58.80;;;;;;5028928;28;20033;-60
2022/03/09 10:27:57;;;;;;;8.52;5.78;;;13.00;58.80;;;;;;5026933;28;20407;-59
2022/03/09 10:30:29;;;;;;;13.48;6.80;;;12.70;59.20;;;;;;5014857;28;20491;-59
2022/03/09 10:32:58;;;;;;;8.27;5.72;;;12.20;59.60;;;;;;5027628;28;20026;-60
2022/03/09 10:35:29;;;;;;;8.65;5.97;;;12.00;59.30;;;;;;5031196;28;20445;-60
2022/03/09 10:37:55;;;;;;;10.63;7.32;;;11.90;61.50;;;;;;5029236;28;20068;-60
2022/03/09 10:40:22;;;;;;;12.02;5.45;;;11.80;60.40;;;;;;5031587;28;20045;-59
2022/03/09 10:42:49;;;;;;;11.07;6.10;;;11.70;60.00;;;;;;5031523;28;20029;-60
2022/03/09 10:45:17;;;;;;;14.73;6.43;;;11.60;60.40;;;;;;5029596;28;20390;-60
2022/03/09 10:47:47;;;;;;;10.77;6.25;;;11.50;60.60;;;;;;5032105;28;20431;-60
2022/03/09 10:50:30;;;;;;;12.27;6.00;;;11.50;60.40;;;;;;5029412;28;20041;-60
2022/03/09 10:52:57;;;;;;;16.80;5.80;;;11.30;59.90;;;;;;5018153;28;20037;-59
2022/03/09 10:55:30;;;;;;;9.02;6.18;;;11.30;61.60;;;;;;5026118;28;20107;-59
2022/03/09 10:58:07;;;;;;;9.75;6.80;;;11.50;62.30;;;;;;5026688;28;20032;-60
2022/03/09 11:00:41;;;;;;;10.98;6.82;;;11.50;61.00;;;;;;5029253;28;20049;-60
2022/03/09 11:03:33;;;;;;;8.45;5.72;;;11.50;60.60;;;;;;5030574;28;20032;-60
2022/03/09 11:06:02;;;;;;;11.43;6.28;;;11.50;61.70;;;;;;5024533;28;20076;-60
2022/03/09 11:08:28;;;;;;;20.70;6.88;;;11.60;60.10;;;;;;5028716;28;20018;-60
2022/03/09 11:10:55;;;;;;;10.95;6.22;;;11.50;60.50;;;;;;5029601;28;20025;-60
2022/03/09 11:13:22;;;;;;;11.77;6.95;;;11.40;61.20;;;;;;5030510;28;20112;-60
2022/03/09 11:15:48;;;;;;;14.90;6.07;;;11.30;61.40;;;;;;5011189;28;20066;-59
2022/03/09 11:18:21;;;;;;;19.42;6.40;;;11.30;59.60;;;;;;5031317;28;20061;-60
2022/03/09 11:20:49;;;;;;;10.95;7.40;;;11.30;60.50;;;;;;5018334;28;20026;-64
2022/03/09 11:23:16;;;;;;;15.93;7.15;;;11.30;60.70;;;;;;5027740;28;20033;-59
2022/03/09 11:25:54;;;;;;;11.95;6.35;;;11.40;61.00;;;;;;5021861;28;20046;-59
2022/03/09 11:28:31;;;;;;;10.77;6.03;;;11.40;60.70;;;;;;5024752;28;20117;-60
2022/03/09 11:31:01;;;;;;;10.68;6.15;;;11.40;60.10;;;;;;5024480;28;20052;-60
2022/03/09 11:33:49;;;;;;;9.00;5.75;;;11.40;60.40;;;;;;5030644;28;20025;-61
2022/03/09 11:36:21;;;;;;;10.38;6.93;;;11.50;61.20;;;;;;5031236;28;20037;-60
2022/03/09 11:39:04;;;;;;;8.55;5.78;;;11.50;59.40;;;;;;5030591;28;20559;-60
2022/03/09 11:41:36;;;;;;;9.18;6.15;;;11.60;60.60;;;;;;5030282;28;20037;-60
2022/03/09 11:44:19;;;;;;;9.02;6.13;;;11.70;59.90;;;;;;5019682;28;20033;-60
2022/03/09 11:46:59;;;;;;;11.43;7.63;;;11.60;60.00;;;;;;5023182;28;20388;-61
2022/03/09 11:49:54;;;;;;;10.32;6.45;;;11.60;59.10;;;;;;5024627;28;20030;-60
2022/03/09 11:52:24;;;;;;;13.90;6.88;;;11.50;59.30;;;;;;5015330;28;20418;-60
2022/03/09 11:54:59;;;;;;;10.45;5.85;;;11.50;58.60;;;;;;5020904;28;20025;-61
2022/03/09 11:57:47;;;;;;;11.13;6.43;;;11.40;58.90;;;;;;5022484;28;20026;-60
2022/03/09 12:00:17;;;;;;;12.75;7.60;;;11.30;59.50;;;;;;5020072;28;20030;-59
2022/03/09 12:02:48;;;;;;;30.25;13.93;;;11.30;60.30;;;;;;5030125;28;20059;-60
2022/03/09 12:05:26;;;;;;;11.77;6.50;;;11.30;60.80;;;;;;5030537;28;20124;-61
2022/03/09 12:07:52;;;;;;;10.75;6.30;;;11.40;60.50;;;;;;5029706;28;20037;-61
2022/03/09 12:10:21;;;;;;;10.63;6.00;;;11.50;59.30;;;;;;5028856;28;20037;-60
2022/03/09 12:13:16;;;;;;;12.38;6.53;;;11.50;59.60;;;;;;5022130;28;20037;-61
2022/03/09 12:16:15;;;;;;;14.85;8.00;;;11.50;58.40;;;;;;5010565;28;20495;-61
2022/03/09 12:19:04;;;;;;;9.88;6.28;;;11.50;56.90;;;;;;5018231;28;20155;-60
2022/03/09 12:21:35;;;;;;;11.45;6.68;;;11.50;58.20;;;;;;5026062;28;20036;-60
2022/03/09 12:24:03;;;;;;;8.50;5.75;;;11.50;58.10;;;;;;5027222;28;20116;-60
2022/03/09 12:26:55;;;;;;;11.15;5.97;;;11.40;56.90;;;;;;5030224;28;20410;-61
2022/03/09 12:29:20;;;;;;;11.18;6.40;;;11.40;58.60;;;;;;5019612;28;20064;-61
2022/03/09 12:31:47;;;;;;;19.70;7.10;;;11.30;57.90;;;;;;5030217;28;20061;-59
2022/03/09 12:34:24;;;;;;;13.55;7.10;;;11.30;56.00;;;;;;5019213;28;20787;-61
2022/03/09 12:36:50;;;;;;;11.65;6.53;;;11.30;57.90;;;;;;5020066;28;20064;-60
2022/03/09 12:39:16;;;;;;;14.18;7.07;;;11.30;59.00;;;;;;5036785;28;20026;-60
2022/03/09 12:41:42;;;;;;;10.05;5.70;;;11.40;57.60;;;;;;5030358;28;20064;-60
2022/03/09 12:44:11;;;;;;;9.57;6.22;;;11.40;57.40;;;;;;5027095;28;20116;-61
2022/03/09 12:46:41;;;;;;;9.30;6.85;;;11.40;58.50;;;;;;5030343;28;20104;-60
2022/03/09 12:49:12;;;;;;;11.50;6.03;;;11.40;57.10;;;;;;5026935;28;20492;-61
2022/03/09 12:51:47;;;;;;;10.25;6.18;;;11.50;56.40;;;;;;5029348;28;20554;-60
2022/03/09 12:54:13;;;;;;;10.82;6.22;;;11.50;56.30;;;;;;5022635;28;20042;-60
2022/03/09 12:56:39;;;;;;;11.48;7.68;;;11.50;56.30;;;;;;5025202;28;20650;-61